createdAt,value
2018-07-24T00:02:22.627Z,20.35
2018-07-24T00:04:58.436Z,20.28
2018-07-24T00:07:34.841Z,20.23
2018-07-24T00:10:11.129Z,20.19
2018-07-24T00:12:40.130Z,20.15
2018-07-24T00:15:08.950Z,20.12
2018-07-24T00:17:37.810Z,20.09
2018-07-24T00:20:08.323Z,20.08
2018-07-24T00:22:42.130Z,20.06
2018-07-24T00:25:23.827Z,20.03
2018-07-24T00:27:59.003Z,20.01
2018-07-24T00:30:27.826Z,19.99
2018-07-24T00:32:56.605Z,19.99
2018-07-24T00:35:25.405Z,19.97
2018-07-24T00:37:56.050Z,19.97
2018-07-24T00:40:28.284Z,19.96
2018-07-24T00:42:59.956Z,19.94
2018-07-24T00:45:35.396Z,19.92
2018-07-24T00:48:07.754Z,19.89
2018-07-24T00:50:36.554Z,19.88
2018-07-24T00:53:05.377Z,19.87
2018-07-24T00:55:34.214Z,19.84
2018-07-24T00:58:03.847Z,19.79
2018-07-24T01:00:38.193Z,19.76
2018-07-24T01:03:10.440Z,19.73
2018-07-24T01:05:47.000Z,19.71
2018-07-24T01:08:15.859Z,19.67
2018-07-24T01:10:44.789Z,19.64
2018-07-24T01:13:13.609Z,19.59
2018-07-24T01:15:42.636Z,19.56
2018-07-24T01:18:20.139Z,19.56
2018-07-24T01:20:55.100Z,19.53
2018-07-24T01:23:28.019Z,19.52
2018-07-24T01:25:57.864Z,19.53
2018-07-24T01:28:26.718Z,19.53
2018-07-24T01:30:55.529Z,19.52
2018-07-24T01:36:23.895Z,19.53
2018-07-24T01:38:57.958Z,19.54
2018-07-24T01:41:32.119Z,19.56
2018-07-24T01:44:01.010Z,19.57
2018-07-24T01:46:29.869Z,19.58
2018-07-24T01:48:58.711Z,19.59
2018-07-24T01:51:28.147Z,19.60
2018-07-24T01:53:59.983Z,19.62
2018-07-24T01:56:35.579Z,19.64
2018-07-24T01:59:11.293Z,19.65
2018-07-24T02:01:40.162Z,19.66
2018-07-24T02:04:08.969Z,19.68
2018-07-24T02:06:37.798Z,19.70
2018-07-24T02:09:09.483Z,19.72
2018-07-24T02:11:46.145Z,19.75
2018-07-24T02:14:20.111Z,19.75
2018-07-24T02:16:59.564Z,19.74
2018-07-24T02:19:28.463Z,19.73
2018-07-24T02:21:57.362Z,19.72
2018-07-24T02:24:26.222Z,19.72
2018-07-24T02:26:55.953Z,19.73
2018-07-24T02:29:27.666Z,19.74
2018-07-24T02:31:59.869Z,19.75
2018-07-24T02:34:38.548Z,19.75
2018-07-24T02:37:11.402Z,19.75
2018-07-24T02:39:41.152Z,19.77
2018-07-24T02:42:10.043Z,19.79
2018-07-24T02:44:38.995Z,19.80
2018-07-24T02:47:12.130Z,19.81
2018-07-24T02:49:47.207Z,19.81
2018-07-24T02:52:23.183Z,19.80
2018-07-24T02:54:57.939Z,19.78
2018-07-24T02:57:26.779Z,19.80
2018-07-24T02:59:55.542Z,19.80
2018-07-24T03:02:24.330Z,19.81
2018-07-24T03:04:53.587Z,19.82
2018-07-24T03:07:31.840Z,19.80
2018-07-24T03:10:03.249Z,19.81
2018-07-24T03:12:37.456Z,19.81
2018-07-24T03:15:06.298Z,19.81
2018-07-24T03:17:35.087Z,19.81
2018-07-24T03:20:03.910Z,19.81
2018-07-24T03:22:33.160Z,19.80
2018-07-24T03:25:07.108Z,19.80
2018-07-24T03:27:42.287Z,19.78
2018-07-24T03:32:48.259Z,19.78
2018-07-24T03:35:17.074Z,19.76
2018-07-24T03:37:45.866Z,19.75
2018-07-24T03:40:14.967Z,19.72
2018-07-24T03:42:51.293Z,19.69
2018-07-24T03:45:26.453Z,19.66
2018-07-24T03:47:59.193Z,19.65
2018-07-24T03:50:27.967Z,19.63
2018-07-24T03:52:56.860Z,19.63
2018-07-24T03:55:25.662Z,19.62
2018-07-24T03:57:54.655Z,19.60
2018-07-24T04:00:27.423Z,19.60
2018-07-24T04:02:59.854Z,19.58
2018-07-24T04:05:35.577Z,19.58
2018-07-24T04:08:07.644Z,19.57
2018-07-24T04:10:36.516Z,19.57
2018-07-24T04:13:05.394Z,19.58
2018-07-24T04:15:35.470Z,19.56
2018-07-24T04:18:10.382Z,19.56
2018-07-24T04:20:42.802Z,19.54
2018-07-24T04:23:18.499Z,19.53
2018-07-24T04:25:47.309Z,19.51
2018-07-24T04:28:16.150Z,19.48
2018-07-24T04:30:44.988Z,19.48
2018-07-24T04:33:14.195Z,19.48
2018-07-24T04:35:47.064Z,19.47
2018-07-24T04:38:20.283Z,19.47
2018-07-24T04:40:51.831Z,19.46
2018-07-24T04:43:20.650Z,19.45
2018-07-24T04:45:49.555Z,19.42
2018-07-24T04:48:18.418Z,19.40
2018-07-24T04:50:47.527Z,19.40
2018-07-24T04:53:30.924Z,19.39
2018-07-24T04:56:07.416Z,19.40
2018-07-24T04:58:39.927Z,19.41
2018-07-24T05:01:08.722Z,19.42
2018-07-24T05:03:39.461Z,19.43
2018-07-24T05:06:08.278Z,19.43
2018-07-24T05:08:38.096Z,19.43
2018-07-24T05:11:10.492Z,19.43
2018-07-24T05:13:46.812Z,19.45
2018-07-24T05:16:19.537Z,19.45
2018-07-24T05:18:48.338Z,19.45
2018-07-24T05:21:17.309Z,19.45
2018-07-24T05:23:46.219Z,19.46
2018-07-24T05:35:23.943Z,19.48
2018-07-24T05:37:52.947Z,19.50
2018-07-24T05:40:22.094Z,19.52
2018-07-24T05:51:59.363Z,19.60
2018-07-24T05:54:28.323Z,19.60
2018-07-24T05:56:57.340Z,19.62
2018-07-24T06:11:09.073Z,19.73
2018-07-24T06:13:38.496Z,19.76
2018-07-24T06:25:30.139Z,19.89
2018-07-24T06:27:59.138Z,19.91
2018-07-24T06:30:28.539Z,19.96
2018-07-24T06:44:54.153Z,20.17
2018-07-24T06:47:23.206Z,20.18
2018-07-24T06:49:52.690Z,20.20
2018-07-24T07:01:30.456Z,20.19
2018-07-24T07:03:59.592Z,20.21
2018-07-24T07:06:28.919Z,20.22
2018-07-24T07:18:05.697Z,20.26
2018-07-24T07:20:35.606Z,20.26
2018-07-24T07:23:05.707Z,20.28
2018-07-24T07:34:45.303Z,20.15
2018-07-24T07:37:17.303Z,20.16
2018-07-24T07:39:46.590Z,20.13
2018-07-24T07:54:28.472Z,20.26
2018-07-24T07:56:59.573Z,20.31
2018-07-24T08:08:56.183Z,20.52
2018-07-24T08:11:27.951Z,20.61
2018-07-24T08:14:34.373Z,20.71
2018-07-24T08:26:20.020Z,21.12
2018-07-24T09:02:16.398Z,21.03
2018-07-24T09:04:45.569Z,21.00
2018-07-24T09:07:15.115Z,20.98
2018-07-24T09:18:52.996Z,21.06
2018-07-24T09:21:22.095Z,21.06
2018-07-24T09:23:51.170Z,21.07
2018-07-24T09:35:29.168Z,20.98
2018-07-24T09:37:58.502Z,20.97
2018-07-24T09:40:27.763Z,21.02
2018-07-24T09:52:04.910Z,21.25
2018-07-24T09:54:34.092Z,21.26
2018-07-24T09:57:03.131Z,21.23
2018-07-24T10:08:41.470Z,21.33
2018-07-24T10:11:10.598Z,21.29
2018-07-24T10:13:39.661Z,21.29
2018-07-24T10:25:29.126Z,21.47
2018-07-24T10:27:58.176Z,21.55
2018-07-24T10:30:27.575Z,21.67
2018-07-24T10:44:59.335Z,22.01
2018-07-24T10:47:28.878Z,22.00
2018-07-24T11:02:07.431Z,22.39
2018-07-24T11:04:36.553Z,22.40
2018-07-24T11:19:09.571Z,22.47
2018-07-24T11:21:38.698Z,22.49
2018-07-24T11:24:08.013Z,22.41
2018-07-24T11:35:46.646Z,21.45
2018-07-24T11:38:15.627Z,21.19
2018-07-24T11:40:45.036Z,20.94
2018-07-24T11:52:22.895Z,20.77
2018-07-24T11:54:52.159Z,20.93
2018-07-24T11:57:21.418Z,21.16
2018-07-24T12:09:00.112Z,22.00
2018-07-24T12:11:29.421Z,22.18
2018-07-24T12:13:58.554Z,22.25
2018-07-24T12:25:36.199Z,22.57
2018-07-24T12:28:05.132Z,22.68
2018-07-24T12:30:34.141Z,22.74
2018-07-24T12:42:20.382Z,22.89
2018-07-24T12:44:49.403Z,23.06
2018-07-24T12:47:19.392Z,23.19
2018-07-24T12:49:48.801Z,23.24
2018-07-24T13:01:26.455Z,23.72
2018-07-24T13:03:55.356Z,23.90
2018-07-24T13:06:25.310Z,24.03
2018-07-24T13:18:15.782Z,23.99
2018-07-24T13:20:44.824Z,24.03
2018-07-24T13:23:13.995Z,24.06
2018-07-24T13:34:50.769Z,23.92
2018-07-24T13:37:19.837Z,23.87
2018-07-24T13:39:54.197Z,23.85
2018-07-24T13:51:32.610Z,24.09
2018-07-24T13:54:01.548Z,24.21
2018-07-24T13:56:30.496Z,24.34
2018-07-24T14:08:07.060Z,25.14
2018-07-24T14:10:36.130Z,25.16
2018-07-24T14:13:05.155Z,25.09
2018-07-24T14:25:06.362Z,25.02
2018-07-24T14:44:14.676Z,26.01
2018-07-24T14:46:57.343Z,25.91
2018-07-24T14:49:26.504Z,25.91
2018-07-24T15:01:02.985Z,26.22
2018-07-24T15:03:32.100Z,26.42
2018-07-24T15:06:01.359Z,26.64
2018-07-24T15:17:40.022Z,27.38
2018-07-24T15:20:09.120Z,27.63
2018-07-24T15:22:38.524Z,27.74
2018-07-24T15:37:36.893Z,27.14
2018-07-24T16:32:13.939Z,27.78
2018-07-24T17:57:01.755Z,29.15
2018-07-24T17:59:31.990Z,29.20
2018-07-24T18:13:55.281Z,29.03
2018-07-24T18:16:25.977Z,29.08
2018-07-24T18:18:55.276Z,29.01
2018-07-24T18:30:34.027Z,29.10
2018-07-24T18:33:03.477Z,29.06
2018-07-24T18:35:32.892Z,28.99
2018-07-24T18:50:13.751Z,27.91
2018-07-24T18:52:42.878Z,27.33
2018-07-24T18:55:12.158Z,26.77
2018-07-24T19:06:49.961Z,25.31
2018-07-24T19:09:19.464Z,25.03
2018-07-24T19:11:48.671Z,24.75
2018-07-24T19:23:44.868Z,23.78
2018-07-24T19:26:14.262Z,23.56
2018-07-24T19:28:43.677Z,23.44
2018-07-24T19:46:07.640Z,22.55
2018-07-24T19:48:36.900Z,22.43
2018-07-24T19:51:06.758Z,22.34
2018-07-24T20:03:01.914Z,21.91
2018-07-24T20:05:32.108Z,21.80
2018-07-24T20:08:01.370Z,21.67
2018-07-24T20:10:31.710Z,21.57
2018-07-24T20:22:09.275Z,21.19
2018-07-24T20:24:38.589Z,21.11
2018-07-24T20:27:07.852Z,21.04
2018-07-24T20:39:01.609Z,20.72
2018-07-24T20:41:30.936Z,20.65
2018-07-24T20:44:00.075Z,20.57
2018-07-24T20:46:35.668Z,20.51
2018-07-24T20:58:13.075Z,20.19
2018-07-24T21:00:42.451Z,20.12
2018-07-24T21:03:11.819Z,20.05
2018-07-24T21:14:49.456Z,19.72
2018-07-24T21:17:18.823Z,19.64
2018-07-24T21:19:48.221Z,19.54
2018-07-24T21:31:25.269Z,19.47
2018-07-24T21:33:54.560Z,19.45
2018-07-24T21:36:23.797Z,19.42
2018-07-24T21:48:00.686Z,19.11
2018-07-24T21:50:29.714Z,19.03
2018-07-24T21:52:58.857Z,18.97
2018-07-24T21:55:28.503Z,18.91
2018-07-24T22:07:05.794Z,18.55
2018-07-24T22:09:34.694Z,18.46
2018-07-24T22:12:04.663Z,18.36
2018-07-24T22:23:41.516Z,18.27
2018-07-24T22:26:10.404Z,18.25
2018-07-24T22:28:39.694Z,18.23
2018-07-24T22:40:16.514Z,18.02
2018-07-24T22:42:45.438Z,18.06
2018-07-24T22:45:14.288Z,18.09
2018-07-24T22:47:43.415Z,18.11
2018-07-24T22:50:19.621Z,18.11
2018-07-24T22:52:51.641Z,18.12
2018-07-24T22:55:23.731Z,18.13
2018-07-24T22:57:52.510Z,18.13
2018-07-24T23:00:21.353Z,18.16
2018-07-24T23:02:50.248Z,18.13
2018-07-24T23:05:19.608Z,18.14
2018-07-24T23:07:52.160Z,18.12
2018-07-24T23:10:42.502Z,18.09
2018-07-24T23:13:19.655Z,18.00
2018-07-24T23:15:49.530Z,17.97
2018-07-24T23:18:18.494Z,17.95
2018-07-24T23:20:48.352Z,17.95
2018-07-24T23:23:18.720Z,17.94
2018-07-24T23:25:50.692Z,17.92
2018-07-24T23:28:21.405Z,17.89
2018-07-24T23:30:52.592Z,17.83
2018-07-24T23:33:27.094Z,17.80
2018-07-24T23:35:56.022Z,17.77
2018-07-24T23:38:25.469Z,17.75
2018-07-24T23:40:54.382Z,17.75
2018-07-24T23:43:26.640Z,17.71
2018-07-24T23:46:00.336Z,17.67
2018-07-24T23:48:32.000Z,17.65
2018-07-24T23:51:04.052Z,17.61
2018-07-24T23:53:32.971Z,17.57
2018-07-24T23:56:01.862Z,17.56
2018-07-24T23:58:31.042Z,17.53
